Buoy 41942

sailwx.info

Track history (hours):
 
Tides and Currents Weather Stations Pressure Air Temp Water Temp Dewpoint Dewpoint Depression Visibility Wind Speed Wind Dir Waves Ship Positions

Drifting buoy 41942

Last reported at 2014-Jul-23 01:33 UTC. Time now 2014-Aug-21 12:11 UTC.
Position N 28°40' W 049°55'.
Warning: this ship's position is 29 days out of date.

Water temperature 29.1 ° C

Date/timePositionNaut miles runAvg speedWind from/ knotsBaromVisibWave heightAir tempDewpointWater temp
2014-Jul-23 01:33N 28°40' W 049°55'0 0.3 29.1
2014-Jul-23 00:48N 28°40' W 049°54'0 0.6 29.2
2014-Jul-22 23:59N 28°40' W 049°55'0 1.2 29.3
2014-Jul-22 23:53N 28°40' W 049°55'0 0.0 29.3
2014-Jul-22 23:04N 28°40' W 049°55'0 0.9
2014-Jul-22 23:00N 28°40' W 049°55'0 0.2 29.1
2014-Jul-22 21:49N 28°40' W 049°55'0 0.5 30.0
2014-Jul-22 21:05N 28°40' W 049°55'0 5.7 30.4
2014-Jul-22 21:00N 28°40' W 049°55'0 2.4 30.6
2014-Jul-22 20:48N 28°40' W 049°55'0 0.0
2014-Jul-22 20:12N 28°40' W 049°55'0 0.2 30.9
2014-Jul-22 19:31N 28°40' W 049°55'1 0.6 31.1
2014-Jul-22 18:33N 28°39' W 049°55'0 0.0 31.1
2014-Jul-22 18:25N 28°39' W 049°55'0 0.2 31.1
2014-Jul-22 17:49N 28°39' W 049°55'1 1.0 31.0
2014-Jul-22 16:59N 28°39' W 049°56'1 0.7 30.4
2014-Jul-22 15:17N 28°38' W 049°54'1 2.5 28.6
2014-Jul-22 15:05N 28°38' W 049°54'0 0.0 28.6
2014-Jul-22 14:18N 28°38' W 049°54'111.1 28.0
2014-Jul-22 14:14N 28°38' W 049°53'1 0.2 28.0
2014-Jul-22 11:48N 28°38' W 049°53'0 4.5 27.3
2014-Jul-22 11:42N 28°39' W 049°52'0 0.0 27.3
2014-Jul-22 10:34N 28°39' W 049°52'0 1.4 27.3
2014-Jul-22 10:18N 28°38' W 049°52'1 1.0 27.3
2014-Jul-22 09:44N 28°39' W 049°52'1 0.7 27.3
2014-Jul-22 08:58N 28°39' W 049°51'1 0.9 27.3
2014-Jul-22 08:03N 28°39' W 049°51'0 0.0 27.4
2014-Jul-22 07:59N 28°39' W 049°51'0 0.2 27.4
2014-Jul-22 07:16N 28°39' W 049°51'0 0.0 27.4
2014-Jul-22 07:13N 28°39' W 049°51'0 0.2 27.4
2014-Jul-22 06:58N 28°39' W 049°51'0 0.7 27.4
2014-Jul-22 06:23N 28°40' W 049°51'0 6.4 27.4
2014-Jul-22 06:19N 28°40' W 049°51'0 0.3 27.4
2014-Jul-22 05:33N 28°40' W 049°51'0 0.0 27.5
2014-Jul-22 05:32N 28°40' W 049°51'0 0.0 27.5
2014-Jul-22 03:56N 28°40' W 049°51'111.9 27.6
2014-Jul-22 03:52N 28°40' W 049°51'0 0.0 27.6
2014-Jul-22 01:58N 28°40' W 049°51'0 0.3 27.7
2014-Jul-22 01:03N 28°40' W 049°52'0 0.0 27.8
2014-Jul-22 01:00N 28°40' W 049°52'1 0.9 27.8
2014-Jul-22 00:21N 28°40' W 049°52'013.1 27.7
2014-Jul-22 00:19N 28°40' W 049°52'0 0.1 27.7
2014-Jul-21 23:26N 28°39' W 049°52'0 1.0 27.7
2014-Jul-21 23:19N 28°39' W 049°52'0 0.7 27.7
2014-Jul-21 23:03N 28°40' W 049°52'1 0.6 27.7
2014-Jul-21 22:12N 28°39' W 049°52'0 0.0 27.6
2014-Jul-21 21:32N 28°39' W 049°52'0 1.6 27.7
2014-Jul-21 21:17N 28°39' W 049°52'0 0.7 27.8
2014-Jul-21 20:36N 28°39' W 049°51'0 9.5 27.8
2014-Jul-21 20:33N 28°39' W 049°51'0 0.6 27.9
2014-Jul-21 19:46N 28°39' W 049°51'0 1.2 27.9
2014-Jul-21 19:42N 28°39' W 049°51'0 0.4 27.9
2014-Jul-21 18:56N 28°38' W 049°51'1 3.5 27.9
2014-Jul-21 18:47N 28°38' W 049°51'1 0.7 27.9
2014-Jul-21 18:00N 28°38' W 049°51'1 0.6 27.9
2014-Jul-21 17:10N 28°38' W 049°50'1 5.3 27.9
2014-Jul-21 17:04N 28°38' W 049°51'1 0.3 27.9
2014-Jul-21 15:28N 28°37' W 049°50'0 0.4 27.7
2014-Jul-21 14:43N 28°37' W 049°50'0 0.5 27.5
2014-Jul-21 13:51N 28°37' W 049°50'0 0.5 27.4
2014-Jul-21 13:03N 28°37' W 049°49'0 0.0 27.3
2014-Jul-21 13:00N 28°37' W 049°49'0 0.5 27.3
2014-Jul-21 12:11N 28°37' W 049°49'0 0.0 27.3
2014-Jul-21 12:08N 28°37' W 049°49'0 1.9 27.3
2014-Jul-21 12:02N 28°37' W 049°49'1 0.8 27.3
2014-Jul-21 10:55N 28°37' W 049°48'113.1 27.2
2014-Jul-21 10:51N 28°37' W 049°49'1 1.0 27.2
2014-Jul-21 09:56N 28°37' W 049°48'119.8 27.2
2014-Jul-21 09:53N 28°37' W 049°47'0 0.0 27.2
2014-Jul-21 09:15N 28°37' W 049°47'0 0.0 27.2
2014-Jul-21 09:14N 28°37' W 049°47'116.8 27.2
2014-Jul-21 09:12N 28°37' W 049°47'0 0.0 27.2
2014-Jul-21 08:19N 28°37' W 049°47'0 3.3 27.2
2014-Jul-21 08:15N 28°37' W 049°47'0 4.4 27.2
2014-Jul-21 08:10N 28°38' W 049°47'0 0.0 27.2
2014-Jul-21 07:38N 28°38' W 049°47'0 4.0 27.2
2014-Jul-21 07:35N 28°38' W 049°47'0 0.0 27.2
2014-Jul-21 07:32N 28°38' W 049°47'0 3.6 27.2
2014-Jul-21 07:26N 28°38' W 049°47'0 0.4 27.2
2014-Jul-21 06:36N 28°38' W 049°47'1 7.3 27.2
2014-Jul-21 06:31N 28°38' W 049°46'0 0.1 27.2
2014-Jul-21 05:44N 28°38' W 049°46'1 7.8 27.2
2014-Jul-21 05:38N 28°38' W 049°46'0 0.3 27.2
2014-Jul-21 04:04N 28°39' W 049°46'0 3.6 27.2
2014-Jul-21 03:58N 28°38' W 049°46'0 0.0 27.2
2014-Jul-21 02:14N 28°38' W 049°46'0 0.0 27.3
2014-Jul-21 01:28N 28°38' W 049°46'0 0.5 27.4
2014-Jul-21 01:22N 28°38' W 049°46'0 0.5 27.4
2014-Jul-21 00:41N 28°38' W 049°47'0 0.0 27.5
2014-Jul-20 23:48N 28°38' W 049°47'0 0.9 27.7
2014-Jul-20 23:37N 28°38' W 049°47'1 0.8 27.7
2014-Jul-20 22:59N 28°38' W 049°47'1 0.7 27.9
2014-Jul-20 22:03N 28°38' W 049°46'1 0.7 28.1
2014-Jul-20 21:01N 28°38' W 049°47'0 0.5 28.4
2014-Jul-20 20:14N 28°37' W 049°46'0 0.2 28.7
2014-Jul-20 19:53N 28°37' W 049°46'0 0.6 28.8
2014-Jul-20 19:48N 28°37' W 049°46'0 0.3 28.8
2014-Jul-20 19:16N 28°37' W 049°46'0 6.7 28.9
2014-Jul-20 19:12N 28°37' W 049°46'0 0.0 29.1
2014-Jul-20 18:57N 28°37' W 049°46'0 0.0 29.2
2014-Jul-20 18:11N 28°37' W 049°46'1 0.6 29.6
2014-Jul-20 17:18N 28°37' W 049°46'0 7.9 29.6
2014-Jul-20 17:15N 28°36' W 049°45'0 0.0 29.6
2014-Jul-20 15:39N 28°36' W 049°45'1 0.7 28.6
2014-Jul-20 14:12N 28°36' W 049°44'1 0.9 27.8
2014-Jul-20 13:18N 28°36' W 049°43'0 0.5 27.3
2014-Jul-20 12:28N 28°36' W 049°44'1 5.4 27.2
2014-Jul-20 12:21N 28°36' W 049°43'0 0.0 27.2
2014-Jul-20 11:43N 28°36' W 049°43'0 6.4 27.1
2014-Jul-20 11:40N 28°36' W 049°43'112.7 27.1
2014-Jul-20 11:37N 28°36' W 049°42'0 0.0 27.1
2014-Jul-20 09:46N 28°36' W 049°42'0 3.2 27.0
2014-Jul-20 09:45N 28°36' W 049°42'1 6.5 27.0
2014-Jul-20 09:38N 28°37' W 049°42'0 0.0 27.0
2014-Jul-20 08:32N 28°37' W 049°42'0 1.5 27.0
2014-Jul-20 08:27N 28°37' W 049°42'0 1.2 27.0
2014-Jul-20 08:04N 28°37' W 049°42'0 0.9 27.0
2014-Jul-20 07:33N 28°38' W 049°42'0 0.1 27.0
2014-Jul-20 06:47N 28°38' W 049°42'0 0.3 27.1
2014-Jul-20 05:54N 28°38' W 049°41'1 0.5 27.1
2014-Jul-20 04:15N 28°38' W 049°42'110.4 27.2
2014-Jul-20 04:11N 28°38' W 049°43'0 0.1 27.2
2014-Jul-20 01:42N 28°38' W 049°43'0 0.0 27.2
2014-Jul-20 01:01N 28°38' W 049°43'0 1.3 27.2
2014-Jul-20 00:55N 28°38' W 049°43'0 0.0 27.2
2014-Jul-20 00:04N 28°38' W 049°43'0 0.2 27.3
2014-Jul-19 23:18N 28°38' W 049°43'0 4.8 27.3
2014-Jul-19 23:12N 28°38' W 049°43'0 0.0 27.3
2014-Jul-19 22:33N 28°38' W 049°43'0 0.1 27.4
2014-Jul-19 21:24N 28°38' W 049°43'1 0.8 27.6
2014-Jul-19 20:43N 28°37' W 049°43'0 0.0 27.6
2014-Jul-19 20:04N 28°37' W 049°43'0 3.2 27.6
2014-Jul-19 20:01N 28°37' W 049°43'1 3.3 27.6
2014-Jul-19 19:46N 28°36' W 049°43'0 0.0 27.7
2014-Jul-19 18:18N 28°36' W 049°43'0 0.6 27.6
2014-Jul-19 17:32N 28°36' W 049°43'1 0.5 27.6
2014-Jul-19 15:48N 28°35' W 049°42'1 0.9 27.2
2014-Jul-19 14:29N 28°35' W 049°41'0 0.1 27.1
2014-Jul-19 13:46N 28°35' W 049°41'1 0.7 27.0
2014-Jul-19 12:47N 28°35' W 049°40'1 5.3 26.9
2014-Jul-19 12:41N 28°35' W 049°40'0 0.0 26.9
2014-Jul-19 12:03N 28°35' W 049°40'1 0.7 26.9
2014-Jul-19 11:07N 28°35' W 049°39'0 0.0 26.9
2014-Jul-19 10:15N 28°35' W 049°39'0 1.2 26.9
2014-Jul-19 10:11N 28°35' W 049°39'1 7.8 26.9
2014-Jul-19 10:03N 28°36' W 049°38'0 0.0 26.9
2014-Jul-19 08:41N 28°36' W 049°38'0 0.9 26.9
2014-Jul-19 08:37N 28°36' W 049°38'0 5.5 26.9
2014-Jul-19 08:34N 28°36' W 049°38'0 0.0 26.9
2014-Jul-19 08:26N 28°36' W 049°38'1 0.6 26.9
2014-Jul-19 06:58N 28°37' W 049°38'0 0.5 26.9
2014-Jul-19 06:11N 28°37' W 049°38'0 2.1
2014-Jul-19 06:04N 28°37' W 049°38'1 0.4 26.9
2014-Jul-19 04:27N 28°38' W 049°38'0 0.2 26.9
2014-Jul-19 02:08N 28°38' W 049°39'0 1.8 26.9
2014-Jul-19 02:04N 28°38' W 049°39'0 0.3 26.9
2014-Jul-19 01:18N 28°38' W 049°38'0 0.5 26.9
2014-Jul-19 00:30N 28°38' W 049°39'0 0.0 26.9
2014-Jul-19 00:27N 28°38' W 049°39'0 0.1 26.9
2014-Jul-18 23:40N 28°37' W 049°39'0 1.8 26.9
2014-Jul-18 23:31N 28°38' W 049°39'0 0.0
2014-Jul-18 23:00N 28°38' W 049°39'0 2.0 26.9
2014-Jul-18 22:47N 28°37' W 049°38'1 9.0 26.9
2014-Jul-18 22:42N 28°38' W 049°38'0 0.0 26.9
2014-Jul-18 21:49N 28°38' W 049°38'1 0.7 26.9
2014-Jul-18 20:15N 28°37' W 049°39'0 1.6 26.9
2014-Jul-18 20:11N 28°37' W 049°39'1 7.9 26.9
2014-Jul-18 20:06N 28°36' W 049°38'0 0.0 26.9
2014-Jul-18 18:35N 28°36' W 049°38'0 0.3 26.9
2014-Jul-18 17:43N 28°36' W 049°38'1 0.4 26.9
2014-Jul-18 16:02N 28°36' W 049°37'1 1.1 26.9
2014-Jul-18 14:50N 28°36' W 049°36'0 0.1 26.9
2014-Jul-18 14:03N 28°36' W 049°36'0 0.2 26.9
2014-Jul-18 12:20N 28°36' W 049°35'112.5 26.9
2014-Jul-18 12:17N 28°36' W 049°35'0 0.0 26.9
2014-Jul-18 11:29N 28°36' W 049°35'0 0.5 26.9
2014-Jul-18 10:33N 28°37' W 049°34'0 0.2 26.9
2014-Jul-18 09:03N 28°37' W 049°34'0 2.4 26.9
2014-Jul-18 08:51N 28°37' W 049°33'1 5.8 26.9
2014-Jul-18 08:45N 28°37' W 049°33'0 0.0 26.9
2014-Jul-18 07:26N 28°37' W 049°33'0 1.1 26.9
2014-Jul-18 07:09N 28°37' W 049°33'0 4.5 26.9
2014-Jul-18 07:03N 28°37' W 049°33'0 0.1 26.9
2014-Jul-18 06:18N 28°38' W 049°33'0 2.6 26.9
2014-Jul-18 06:12N 28°38' W 049°33'0 0.1 26.9
2014-Jul-18 04:38N 28°38' W 049°33'1 8.5 26.9
2014-Jul-18 04:32N 28°38' W 049°32'0 0.0 26.9
2014-Jul-18 02:24N 28°38' W 049°32'0 0.2 26.9
2014-Jul-18 01:42N 28°38' W 049°32'1 0.7 26.9
2014-Jul-18 00:47N 28°38' W 049°31'0 0.2 26.9
2014-Jul-18 00:02N 28°38' W 049°31'0 0.0 26.9
2014-Jul-17 23:59N 28°38' W 049°31'0 1.6 26.9
2014-Jul-17 23:54N 28°38' W 049°31'0 0.0 26.9
2014-Jul-17 23:31N 28°38' W 049°31'1 2.6 26.9
2014-Jul-17 23:04N 28°38' W 049°30'0 0.0 26.9
2014-Jul-17 22:11N 28°38' W 049°30'0 0.0 26.9
2014-Jul-17 21:57N 28°38' W 049°30'0 0.3 27.0
2014-Jul-17 20:35N 28°38' W 049°30'0 0.0 27.0
2014-Jul-17 20:26N 28°38' W 049°30'0 2.0 27.0
2014-Jul-17 20:22N 28°38' W 049°30'0 1.0 27.0
2014-Jul-17 20:08N 28°39' W 049°30'0 0.0 27.0
2014-Jul-17 18:55N 28°39' W 049°30'0 1.7 27.0
2014-Jul-17 18:46N 28°38' W 049°30'0 0.5 27.0
2014-Jul-17 17:53N 28°38' W 049°29'0 1.0 27.0
2014-Jul-17 17:48N 28°38' W 049°30'1 0.3 27.0
2014-Jul-17 16:13N 28°38' W 049°29'1 0.7 27.0
2014-Jul-17 15:09N 28°38' W 049°28'0 0.0 26.9
2014-Jul-17 14:27N 28°38' W 049°28'0 0.2 26.9
2014-Jul-17 12:41N 28°38' W 049°28'1 1.3 26.9
2014-Jul-17 11:49N 28°38' W 049°26'1 0.3 26.8
2014-Jul-17 09:17N 28°38' W 049°26'1 0.6 26.8
2014-Jul-17 07:58N 28°38' W 049°25'0 0.2 26.8
2014-Jul-17 07:36N 28°38' W 049°25'1 2.0 26.8
2014-Jul-17 07:17N 28°39' W 049°24'0 0.0 26.9
2014-Jul-17 07:14N 28°39' W 049°24'0 0.0 26.9
2014-Jul-17 06:32N 28°39' W 049°24'1 5.4 26.9
2014-Jul-17 06:24N 28°39' W 049°23'0 0.0 26.9
2014-Jul-17 04:49N 28°39' W 049°23'111.1 26.9
2014-Jul-17 04:43N 28°39' W 049°22'0 0.0 26.9
2014-Jul-17 02:02N 28°39' W 049°22'0 0.1 26.9
2014-Jul-17 01:03N 28°39' W 049°22'0 0.3
2014-Jul-17 00:23N 28°39' W 049°22'0 0.0 27.0
2014-Jul-16 23:30N 28°39' W 049°22'0 2.8 27.0
2014-Jul-16 23:23N 28°39' W 049°21'0 0.0 27.0
2014-Jul-16 22:39N 28°39' W 049°21'0 0.0 27.1
2014-Jul-16 22:28N 28°39' W 049°21'0 0.3 27.1
2014-Jul-16 20:59N 28°39' W 049°21'0 0.7 27.2
2014-Jul-16 20:46N 28°39' W 049°21'0 1.8 27.2
2014-Jul-16 20:36N 28°39' W 049°21'1 0.5 27.2
2014-Jul-16 19:11N 28°39' W 049°20'0 0.0 27.3
2014-Jul-16 18:57N 28°39' W 049°20'0 3.2 27.3
2014-Jul-16 18:51N 28°38' W 049°20'0 0.0 27.3
2014-Jul-16 18:03N 28°38' W 049°20'1 0.8 27.3
2014-Jul-16 17:13N 28°38' W 049°19'0 0.0 27.3
2014-Jul-16 16:24N 28°38' W 049°19'0 0.0 27.2
2014-Jul-16 16:18N 28°38' W 049°19'1 0.4 27.2
2014-Jul-16 14:45N 28°38' W 049°19'1 1.1 27.1
2014-Jul-16 13:55N 28°37' W 049°18'0 0.0 27.0
2014-Jul-16 13:02N 28°37' W 049°18'1 1.5 26.9
2014-Jul-16 12:11N 28°37' W 049°17'0 0.0 26.9
2014-Jul-16 10:09N 28°37' W 049°17'0 3.6 26.9
2014-Jul-16 10:02N 28°37' W 049°16'0 0.0 26.9
2014-Jul-16 09:44N 28°37' W 049°16'0 1.4 26.9
2014-Jul-16 09:37N 28°37' W 049°16'0 4.8 26.9
2014-Jul-16 09:34N 28°37' W 049°16'0 0.0 26.9
2014-Jul-16 09:16N 28°37' W 049°16'0 5.8 26.9
2014-Jul-16 09:13N 28°37' W 049°16'0 2.6 26.9
2014-Jul-16 09:07N 28°37' W 049°16'0 0.1 26.9
2014-Jul-16 07:59N 28°37' W 049°16'0 0.5 26.9
2014-Jul-16 07:33N 28°37' W 049°16'0 5.3 26.9
2014-Jul-16 07:30N 28°37' W 049°16'110.6 26.9
2014-Jul-16 07:26N 28°37' W 049°15'0 0.0 26.9
2014-Jul-16 06:43N 28°37' W 049°15'0 0.4 26.9
2014-Jul-16 06:34N 28°37' W 049°15'0 0.1 26.9
2014-Jul-16 05:04N 28°37' W 049°15'0 1.2 26.9
2014-Jul-16 05:00N 28°37' W 049°15'1 0.2 26.9
2014-Jul-16 02:18N 28°37' W 049°14'0 0.0 27.0
2014-Jul-16 01:31N 28°37' W 049°14'0 1.6 27.0
2014-Jul-16 01:23N 28°37' W 049°14'0 0.0 27.0
2014-Jul-16 00:45N 28°37' W 049°14'022.0 27.1
2014-Jul-16 00:44N 28°37' W 049°14'0 0.0 27.1
2014-Jul-15 23:52N 28°37' W 049°14'0 0.1 27.1
2014-Jul-15 23:03N 28°36' W 049°15'0 0.0 27.1
2014-Jul-15 22:57N 28°36' W 049°15'1 0.6 27.1
2014-Jul-15 21:23N 28°36' W 049°14'0 0.3 27.2
2014-Jul-15 21:07N 28°36' W 049°14'0 0.2
2014-Jul-15 20:45N 28°36' W 049°14'0 0.5 27.2
2014-Jul-15 19:45N 28°35' W 049°14'1 0.7 27.2
2014-Jul-15 19:04N 28°35' W 049°14'1 0.6 27.3
2014-Jul-15 18:15N 28°35' W 049°13'1 0.7 27.3
2014-Jul-15 17:25N 28°34' W 049°13'0 0.1 27.2
2014-Jul-15 16:35N 28°34' W 049°13'2 0.9 27.2
2014-Jul-15 14:52N 28°34' W 049°11'0 0.2 27.1
2014-Jul-15 14:16N 28°34' W 049°11'0 0.6 27.0
2014-Jul-15 13:29N 28°33' W 049°11'0 0.3 26.9
2014-Jul-15 12:29N 28°33' W 049°11'113.7 26.9
2014-Jul-15 12:25N 28°33' W 049°10'0 0.0 26.9
2014-Jul-15 11:44N 28°33' W 049°10'0 0.0 26.9
2014-Jul-15 10:39N 28°33' W 049°10'0 3.9 26.8
2014-Jul-15 10:33N 28°33' W 049°10'0 0.0 26.8
2014-Jul-15 10:04N 28°33' W 049°10'0 3.9 26.8
2014-Jul-15 10:02N 28°33' W 049°10'0 0.5 26.8
2014-Jul-15 09:24N 28°33' W 049°09'0 2.7 26.8
2014-Jul-15 09:17N 28°33' W 049°09'0 0.6 26.8
2014-Jul-15 09:02N 28°33' W 049°09'0 0.3 26.8
2014-Jul-15 08:25N 28°33' W 049°09'0 0.3 26.8
2014-Jul-15 07:41N 28°33' W 049°09'0 1.5 26.8
2014-Jul-15 07:21N 28°34' W 049°09'0 0.8 26.8
2014-Jul-15 06:54N 28°33' W 049°09'0 0.2 26.9
2014-Jul-15 06:03N 28°33' W 049°09'0 0.0 26.9
2014-Jul-15 05:11N 28°33' W 049°09'1 6.9 26.9
2014-Jul-15 05:03N 28°32' W 049°09'0 0.0 26.9
2014-Jul-15 03:29N 28°32' W 049°09'0 0.0 26.9
2014-Jul-15 01:51N 28°32' W 049°09'1 6.5 26.9
2014-Jul-15 01:46N 28°32' W 049°08'0 0.4 26.9
2014-Jul-15 01:04N 28°32' W 049°08'0 0.0 26.9
2014-Jul-15 00:12N 28°32' W 049°08'0 0.1 26.9
2014-Jul-14 23:27N 28°32' W 049°08'1 4.9 27.0
2014-Jul-14 23:18N 28°32' W 049°08'0 0.0 27.0
2014-Jul-14 22:29N 28°32' W 049°08'0 0.0 27.0
2014-Jul-14 21:51N 28°32' W 049°08'0 2.5 27.1
2014-Jul-14 21:47N 28°32' W 049°08'0 3.2 27.1
2014-Jul-14 21:44N 28°32' W 049°08'0 0.1 27.1
2014-Jul-14 20:57N 28°32' W 049°08'0 0.3 27.1
2014-Jul-14 20:10N 28°32' W 049°08'0 2.5 27.2
2014-Jul-14 20:03N 28°31' W 049°08'0 0.0 27.2
2014-Jul-14 19:18N 28°31' W 049°08'0 0.1 27.2
2014-Jul-14 18:28N 28°31' W 049°08'0 2.5 27.2
2014-Jul-14 18:23N 28°31' W 049°08'1 0.8 27.2
2014-Jul-14 17:38N 28°31' W 049°08'1 0.9 27.2
2014-Jul-14 16:46N 28°30' W 049°08'2 1.0 27.2
2014-Jul-14 15:02N 28°29' W 049°07'1 1.5
2014-Jul-14 14:34N 28°29' W 049°06'0 0.1 26.9
2014-Jul-14 13:49N 28°29' W 049°06'1 5.9 26.9
2014-Jul-14 13:37N 28°28' W 049°05'1 0.9
2014-Jul-14 12:57N 28°29' W 049°06'1 5.1 26.8
2014-Jul-14 12:50N 28°28' W 049°05'0 0.3 26.8
2014-Jul-14 12:03N 28°28' W 049°05'0 0.3 26.8
2014-Jul-14 11:13N 28°28' W 049°05'0 0.0 26.7
2014-Jul-14 10:32N 28°28' W 049°05'110.7 26.7
2014-Jul-14 10:27N 28°29' W 049°04'0 0.0 26.7
2014-Jul-14 09:35N 28°29' W 049°04'0 3.2 26.7
2014-Jul-14 09:29N 28°29' W 049°04'0 0.0 26.7
2014-Jul-14 08:48N 28°29' W 049°04'0 0.2 26.7
2014-Jul-14 07:54N 28°29' W 049°03'0 4.7 26.7
2014-Jul-14 07:52N 28°29' W 049°04'0 8.5 26.7
2014-Jul-14 07:49N 28°29' W 049°04'0 0.0 26.7
2014-Jul-14 07:11N 28°29' W 049°04'0 5.2 26.7
2014-Jul-14 07:08N 28°29' W 049°04'0 0.0 26.7
2014-Jul-14 07:02N 28°29' W 049°04'0 0.8 26.8
2014-Jul-14 06:56N 28°29' W 049°04'0 0.1 26.8
2014-Jul-14 06:15N 28°29' W 049°03'0 0.1 26.8
2014-Jul-14 05:18N 28°29' W 049°04'1 0.3 26.8
2014-Jul-14 03:41N 28°28' W 049°04'0 0.0 26.8
2014-Jul-14 02:11N 28°28' W 049°04'0 1.5 26.9
2014-Jul-14 02:06N 28°28' W 049°04'0 0.4 26.9
2014-Jul-14 01:26N 28°28' W 049°04'0 0.2 26.9
2014-Jul-14 00:32N 28°28' W 049°04'0 0.5 26.9
2014-Jul-13 23:42N 28°28' W 049°04'0 1.1 26.9
2014-Jul-13 23:35N 28°28' W 049°04'0 0.0 26.9
2014-Jul-13 22:51N 28°28' W 049°04'0 4.4 26.9
2014-Jul-13 22:46N 28°27' W 049°04'0 0.0 26.9
2014-Jul-13 22:17N 28°27' W 049°04'1 4.7 26.9
2014-Jul-13 22:08N 28°27' W 049°03'0 0.0 26.9
2014-Jul-13 21:08N 28°27' W 049°03'0 0.1 27.0
2014-Jul-13 20:34N 28°27' W 049°03'0 0.4 27.0
2014-Jul-13 19:32N 28°26' W 049°03'0 9.5 27.1
2014-Jul-13 19:29N 28°26' W 049°03'0 0.0 27.1
2014-Jul-13 18:53N 28°26' W 049°03'0 1.4 27.1
2014-Jul-13 18:45N 28°26' W 049°03'0 0.0 27.0
2014-Jul-13 18:36N 28°26' W 049°03'1 0.7 27.0
2014-Jul-13 17:49N 28°26' W 049°03'1 1.4 27.0
2014-Jul-13 16:56N 28°25' W 049°03'0 0.0 27.0
2014-Jul-13 15:16N 28°25' W 049°03'1 1.5 26.9
2014-Jul-13 14:55N 28°24' W 049°02'0 0.1 26.8
2014-Jul-13 14:09N 28°24' W 049°03'1 0.3 26.8
2014-Jul-13 12:30N 28°24' W 049°02'0 2.7 26.7
2014-Jul-13 12:23N 28°24' W 049°03'231.3 26.7
2014-Jul-13 12:20N 28°23' W 049°01'0 0.0 26.7
2014-Jul-13 11:28N 28°23' W 049°01'0 0.0 26.7
2014-Jul-13 10:03N 28°23' W 049°01'0 1.8 26.7
2014-Jul-13 09:47N 28°23' W 049°01'1 7.2 26.7
2014-Jul-13 09:42N 28°23' W 049°01'0 0.0 26.7
2014-Jul-13 09:16N 28°23' W 049°01'0 4.0 26.7
2014-Jul-13 09:12N 28°23' W 049°01'0 8.4 26.7
2014-Jul-13 09:09N 28°23' W 049°00'0 0.4 26.7
2014-Jul-13 08:03N 28°23' W 048°60'0 0.4 26.7
2014-Jul-13 07:33N 28°23' W 049°00'0 0.0 26.6
2014-Jul-13 07:15N 28°23' W 049°00'0 0.5 26.7
2014-Jul-13 06:26N 28°23' W 048°60'224.2 26.7
2014-Jul-13 06:22N 28°22' W 048°58'1 1.3 26.7
2014-Jul-13 05:32N 28°23' W 048°59'0 0.0 26.7
2014-Jul-13 05:26N 28°23' W 048°59'0 0.0 26.7
2014-Jul-13 03:53N 28°23' W 048°59'014.4
2014-Jul-13 03:52N 28°23' W 048°59'0 0.2 26.7
2014-Jul-13 01:44N 28°23' W 048°59'   26.7
Track history (hours):
 
Tides and Currents Weather Stations Pressure Air Temp Water Temp Dewpoint Dewpoint Depression Visibility Wind Speed Wind Dir Waves Ship Positions

Drifting buoy 41942

Last reported at 2014-Jul-23 01:33 UTC. Time now 2014-Aug-21 12:11 UTC.
Position N 28°40' W 049°55'.
Warning: this ship's position is 29 days out of date.

Water temperature 29.1 ° C

Date/timePositionNaut miles runAvg speedWind from/ knotsBaromVisibWave heightAir tempDewpointWater temp
2014-Jul-23 01:33N 28°40' W 049°55'0 0.3 29.1
2014-Jul-23 00:48N 28°40' W 049°54'0 0.6 29.2
2014-Jul-22 23:59N 28°40' W 049°55'0 1.2 29.3
2014-Jul-22 23:53N 28°40' W 049°55'0 0.0 29.3
2014-Jul-22 23:04N 28°40' W 049°55'0 0.9
2014-Jul-22 23:00N 28°40' W 049°55'0 0.2 29.1
2014-Jul-22 21:49N 28°40' W 049°55'0 0.5 30.0
2014-Jul-22 21:05N 28°40' W 049°55'0 5.7 30.4
2014-Jul-22 21:00N 28°40' W 049°55'0 2.4 30.6
2014-Jul-22 20:48N 28°40' W 049°55'0 0.0
2014-Jul-22 20:12N 28°40' W 049°55'0 0.2 30.9
2014-Jul-22 19:31N 28°40' W 049°55'1 0.6 31.1
2014-Jul-22 18:33N 28°39' W 049°55'0 0.0 31.1
2014-Jul-22 18:25N 28°39' W 049°55'0 0.2 31.1
2014-Jul-22 17:49N 28°39' W 049°55'1 1.0 31.0
2014-Jul-22 16:59N 28°39' W 049°56'1 0.7 30.4
2014-Jul-22 15:17N 28°38' W 049°54'1 2.5 28.6
2014-Jul-22 15:05N 28°38' W 049°54'0 0.0 28.6
2014-Jul-22 14:18N 28°38' W 049°54'111.1 28.0
2014-Jul-22 14:14N 28°38' W 049°53'1 0.2 28.0
2014-Jul-22 11:48N 28°38' W 049°53'0 4.5 27.3
2014-Jul-22 11:42N 28°39' W 049°52'0 0.0 27.3
2014-Jul-22 10:34N 28°39' W 049°52'0 1.4 27.3
2014-Jul-22 10:18N 28°38' W 049°52'1 1.0 27.3
2014-Jul-22 09:44N 28°39' W 049°52'1 0.7 27.3
2014-Jul-22 08:58N 28°39' W 049°51'1 0.9 27.3
2014-Jul-22 08:03N 28°39' W 049°51'0 0.0 27.4
2014-Jul-22 07:59N 28°39' W 049°51'0 0.2 27.4
2014-Jul-22 07:16N 28°39' W 049°51'0 0.0 27.4
2014-Jul-22 07:13N 28°39' W 049°51'0 0.2 27.4
2014-Jul-22 06:58N 28°39' W 049°51'0 0.7 27.4
2014-Jul-22 06:23N 28°40' W 049°51'0 6.4 27.4
2014-Jul-22 06:19N 28°40' W 049°51'0 0.3 27.4
2014-Jul-22 05:33N 28°40' W 049°51'0 0.0 27.5
2014-Jul-22 05:32N 28°40' W 049°51'0 0.0 27.5
2014-Jul-22 03:56N 28°40' W 049°51'111.9 27.6
2014-Jul-22 03:52N 28°40' W 049°51'0 0.0 27.6
2014-Jul-22 01:58N 28°40' W 049°51'0 0.3 27.7
2014-Jul-22 01:03N 28°40' W 049°52'0 0.0 27.8
2014-Jul-22 01:00N 28°40' W 049°52'1 0.9 27.8
2014-Jul-22 00:21N 28°40' W 049°52'013.1 27.7
2014-Jul-22 00:19N 28°40' W 049°52'0 0.1 27.7
2014-Jul-21 23:26N 28°39' W 049°52'0 1.0 27.7
2014-Jul-21 23:19N 28°39' W 049°52'0 0.7 27.7
2014-Jul-21 23:03N 28°40' W 049°52'1 0.6 27.7
2014-Jul-21 22:12N 28°39' W 049°52'0 0.0 27.6
2014-Jul-21 21:32N 28°39' W 049°52'0 1.6 27.7
2014-Jul-21 21:17N 28°39' W 049°52'0 0.7 27.8
2014-Jul-21 20:36N 28°39' W 049°51'0 9.5 27.8
2014-Jul-21 20:33N 28°39' W 049°51'0 0.6 27.9
2014-Jul-21 19:46N 28°39' W 049°51'0 1.2 27.9
2014-Jul-21 19:42N 28°39' W 049°51'0 0.4 27.9
2014-Jul-21 18:56N 28°38' W 049°51'1 3.5 27.9
2014-Jul-21 18:47N 28°38' W 049°51'1 0.7 27.9
2014-Jul-21 18:00N 28°38' W 049°51'1 0.6 27.9
2014-Jul-21 17:10N 28°38' W 049°50'1 5.3 27.9
2014-Jul-21 17:04N 28°38' W 049°51'1 0.3 27.9
2014-Jul-21 15:28N 28°37' W 049°50'0 0.4 27.7
2014-Jul-21 14:43N 28°37' W 049°50'0 0.5 27.5
2014-Jul-21 13:51N 28°37' W 049°50'0 0.5 27.4
2014-Jul-21 13:03N 28°37' W 049°49'0 0.0 27.3
2014-Jul-21 13:00N 28°37' W 049°49'0 0.5 27.3
2014-Jul-21 12:11N 28°37' W 049°49'0 0.0 27.3
2014-Jul-21 12:08N 28°37' W 049°49'0 1.9 27.3
2014-Jul-21 12:02N 28°37' W 049°49'1 0.8 27.3
2014-Jul-21 10:55N 28°37' W 049°48'113.1 27.2
2014-Jul-21 10:51N 28°37' W 049°49'1 1.0 27.2
2014-Jul-21 09:56N 28°37' W 049°48'119.8 27.2
2014-Jul-21 09:53N 28°37' W 049°47'0 0.0 27.2
2014-Jul-21 09:15N 28°37' W 049°47'0 0.0 27.2
2014-Jul-21 09:14N 28°37' W 049°47'116.8 27.2
2014-Jul-21 09:12N 28°37' W 049°47'0 0.0 27.2
2014-Jul-21 08:19N 28°37' W 049°47'0 3.3 27.2
2014-Jul-21 08:15N 28°37' W 049°47'0 4.4 27.2
2014-Jul-21 08:10N 28°38' W 049°47'0 0.0 27.2
2014-Jul-21 07:38N 28°38' W 049°47'0 4.0 27.2
2014-Jul-21 07:35N 28°38' W 049°47'0 0.0 27.2
2014-Jul-21 07:32N 28°38' W 049°47'0 3.6 27.2
2014-Jul-21 07:26N 28°38' W 049°47'0 0.4 27.2
2014-Jul-21 06:36N 28°38' W 049°47'1 7.3 27.2
2014-Jul-21 06:31N 28°38' W 049°46'0 0.1 27.2
2014-Jul-21 05:44N 28°38' W 049°46'1 7.8 27.2
2014-Jul-21 05:38N 28°38' W 049°46'0 0.3 27.2
2014-Jul-21 04:04N 28°39' W 049°46'0 3.6 27.2
2014-Jul-21 03:58N 28°38' W 049°46'0 0.0 27.2
2014-Jul-21 02:14N 28°38' W 049°46'0 0.0 27.3
2014-Jul-21 01:28N 28°38' W 049°46'0 0.5 27.4
2014-Jul-21 01:22N 28°38' W 049°46'0 0.5 27.4
2014-Jul-21 00:41N 28°38' W 049°47'0 0.0 27.5
2014-Jul-20 23:48N 28°38' W 049°47'0 0.9 27.7
2014-Jul-20 23:37N 28°38' W 049°47'1 0.8 27.7
2014-Jul-20 22:59N 28°38' W 049°47'1 0.7 27.9
2014-Jul-20 22:03N 28°38' W 049°46'1 0.7 28.1
2014-Jul-20 21:01N 28°38' W 049°47'0 0.5 28.4
2014-Jul-20 20:14N 28°37' W 049°46'0 0.2 28.7
2014-Jul-20 19:53N 28°37' W 049°46'0 0.6 28.8
2014-Jul-20 19:48N 28°37' W 049°46'0 0.3 28.8
2014-Jul-20 19:16N 28°37' W 049°46'0 6.7 28.9
2014-Jul-20 19:12N 28°37' W 049°46'0 0.0 29.1
2014-Jul-20 18:57N 28°37' W 049°46'0 0.0 29.2
2014-Jul-20 18:11N 28°37' W 049°46'1 0.6 29.6
2014-Jul-20 17:18N 28°37' W 049°46'0 7.9 29.6
2014-Jul-20 17:15N 28°36' W 049°45'0 0.0 29.6
2014-Jul-20 15:39N 28°36' W 049°45'1 0.7 28.6
2014-Jul-20 14:12N 28°36' W 049°44'1 0.9 27.8
2014-Jul-20 13:18N 28°36' W 049°43'0 0.5 27.3
2014-Jul-20 12:28N 28°36' W 049°44'1 5.4 27.2
2014-Jul-20 12:21N 28°36' W 049°43'0 0.0 27.2
2014-Jul-20 11:43N 28°36' W 049°43'0 6.4 27.1
2014-Jul-20 11:40N 28°36' W 049°43'112.7 27.1
2014-Jul-20 11:37N 28°36' W 049°42'0 0.0 27.1
2014-Jul-20 09:46N 28°36' W 049°42'0 3.2 27.0
2014-Jul-20 09:45N 28°36' W 049°42'1 6.5 27.0
2014-Jul-20 09:38N 28°37' W 049°42'0 0.0 27.0
2014-Jul-20 08:32N 28°37' W 049°42'0 1.5 27.0
2014-Jul-20 08:27N 28°37' W 049°42'0 1.2 27.0
2014-Jul-20 08:04N 28°37' W 049°42'0 0.9 27.0
2014-Jul-20 07:33N 28°38' W 049°42'0 0.1 27.0
2014-Jul-20 06:47N 28°38' W 049°42'0 0.3 27.1
2014-Jul-20 05:54N 28°38' W 049°41'1 0.5 27.1
2014-Jul-20 04:15N 28°38' W 049°42'110.4 27.2
2014-Jul-20 04:11N 28°38' W 049°43'0 0.1 27.2
2014-Jul-20 01:42N 28°38' W 049°43'0 0.0 27.2
2014-Jul-20 01:01N 28°38' W 049°43'0 1.3 27.2
2014-Jul-20 00:55N 28°38' W 049°43'0 0.0 27.2
2014-Jul-20 00:04N 28°38' W 049°43'0 0.2 27.3
2014-Jul-19 23:18N 28°38' W 049°43'0 4.8 27.3
2014-Jul-19 23:12N 28°38' W 049°43'0 0.0 27.3
2014-Jul-19 22:33N 28°38' W 049°43'0 0.1 27.4
2014-Jul-19 21:24N 28°38' W 049°43'1 0.8 27.6
2014-Jul-19 20:43N 28°37' W 049°43'0 0.0 27.6
2014-Jul-19 20:04N 28°37' W 049°43'0 3.2 27.6
2014-Jul-19 20:01N 28°37' W 049°43'1 3.3 27.6
2014-Jul-19 19:46N 28°36' W 049°43'0 0.0 27.7
2014-Jul-19 18:18N 28°36' W 049°43'0 0.6 27.6
2014-Jul-19 17:32N 28°36' W 049°43'1 0.5 27.6
2014-Jul-19 15:48N 28°35' W 049°42'1 0.9 27.2
2014-Jul-19 14:29N 28°35' W 049°41'0 0.1 27.1
2014-Jul-19 13:46N 28°35' W 049°41'1 0.7 27.0
2014-Jul-19 12:47N 28°35' W 049°40'1 5.3 26.9
2014-Jul-19 12:41N 28°35' W 049°40'0 0.0 26.9
2014-Jul-19 12:03N 28°35' W 049°40'1 0.7 26.9
2014-Jul-19 11:07N 28°35' W 049°39'0 0.0 26.9
2014-Jul-19 10:15N 28°35' W 049°39'0 1.2 26.9
2014-Jul-19 10:11N 28°35' W 049°39'1 7.8 26.9
2014-Jul-19 10:03N 28°36' W 049°38'0 0.0 26.9
2014-Jul-19 08:41N 28°36' W 049°38'0 0.9 26.9
2014-Jul-19 08:37N 28°36' W 049°38'0 5.5 26.9
2014-Jul-19 08:34N 28°36' W 049°38'0 0.0 26.9
2014-Jul-19 08:26N 28°36' W 049°38'1 0.6 26.9
2014-Jul-19 06:58N 28°37' W 049°38'0 0.5 26.9
2014-Jul-19 06:11N 28°37' W 049°38'0 2.1
2014-Jul-19 06:04N 28°37' W 049°38'1 0.4 26.9
2014-Jul-19 04:27N 28°38' W 049°38'0 0.2 26.9
2014-Jul-19 02:08N 28°38' W 049°39'0 1.8 26.9
2014-Jul-19 02:04N 28°38' W 049°39'0 0.3 26.9
2014-Jul-19 01:18N 28°38' W 049°38'0 0.5 26.9
2014-Jul-19 00:30N 28°38' W 049°39'0 0.0 26.9
2014-Jul-19 00:27N 28°38' W 049°39'0 0.1 26.9
2014-Jul-18 23:40N 28°37' W 049°39'0 1.8 26.9
2014-Jul-18 23:31N 28°38' W 049°39'0 0.0
2014-Jul-18 23:00N 28°38' W 049°39'0 2.0 26.9
2014-Jul-18 22:47N 28°37' W 049°38'1 9.0 26.9
2014-Jul-18 22:42N 28°38' W 049°38'0 0.0 26.9
2014-Jul-18 21:49N 28°38' W 049°38'1 0.7 26.9
2014-Jul-18 20:15N 28°37' W 049°39'0 1.6 26.9
2014-Jul-18 20:11N 28°37' W 049°39'1 7.9 26.9
2014-Jul-18 20:06N 28°36' W 049°38'0 0.0 26.9
2014-Jul-18 18:35N 28°36' W 049°38'0 0.3 26.9
2014-Jul-18 17:43N 28°36' W 049°38'1 0.4 26.9
2014-Jul-18 16:02N 28°36' W 049°37'1 1.1 26.9
2014-Jul-18 14:50N 28°36' W 049°36'0 0.1 26.9
2014-Jul-18 14:03N 28°36' W 049°36'0 0.2 26.9
2014-Jul-18 12:20N 28°36' W 049°35'112.5 26.9
2014-Jul-18 12:17N 28°36' W 049°35'0 0.0 26.9
2014-Jul-18 11:29N 28°36' W 049°35'0 0.5 26.9
2014-Jul-18 10:33N 28°37' W 049°34'0 0.2 26.9
2014-Jul-18 09:03N 28°37' W 049°34'0 2.4 26.9
2014-Jul-18 08:51N 28°37' W 049°33'1 5.8 26.9
2014-Jul-18 08:45N 28°37' W 049°33'0 0.0 26.9
2014-Jul-18 07:26N 28°37' W 049°33'0 1.1 26.9
2014-Jul-18 07:09N 28°37' W 049°33'0 4.5 26.9
2014-Jul-18 07:03N 28°37' W 049°33'0 0.1 26.9
2014-Jul-18 06:18N 28°38' W 049°33'0 2.6 26.9
2014-Jul-18 06:12N 28°38' W 049°33'0 0.1 26.9
2014-Jul-18 04:38N 28°38' W 049°33'1 8.5 26.9
2014-Jul-18 04:32N 28°38' W 049°32'0 0.0 26.9
2014-Jul-18 02:24N 28°38' W 049°32'0 0.2 26.9
2014-Jul-18 01:42N 28°38' W 049°32'1 0.7 26.9
2014-Jul-18 00:47N 28°38' W 049°31'0 0.2 26.9
2014-Jul-18 00:02N 28°38' W 049°31'0 0.0 26.9
2014-Jul-17 23:59N 28°38' W 049°31'0 1.6 26.9
2014-Jul-17 23:54N 28°38' W 049°31'0 0.0 26.9
2014-Jul-17 23:31N 28°38' W 049°31'1 2.6 26.9
2014-Jul-17 23:04N 28°38' W 049°30'0 0.0 26.9
2014-Jul-17 22:11N 28°38' W 049°30'0 0.0 26.9
2014-Jul-17 21:57N 28°38' W 049°30'0 0.3 27.0
2014-Jul-17 20:35N 28°38' W 049°30'0 0.0 27.0
2014-Jul-17 20:26N 28°38' W 049°30'0 2.0 27.0
2014-Jul-17 20:22N 28°38' W 049°30'0 1.0 27.0
2014-Jul-17 20:08N 28°39' W 049°30'0 0.0 27.0
2014-Jul-17 18:55N 28°39' W 049°30'0 1.7 27.0
2014-Jul-17 18:46N 28°38' W 049°30'0 0.5 27.0
2014-Jul-17 17:53N 28°38' W 049°29'0 1.0 27.0
2014-Jul-17 17:48N 28°38' W 049°30'1 0.3 27.0
2014-Jul-17 16:13N 28°38' W 049°29'1 0.7 27.0
2014-Jul-17 15:09N 28°38' W 049°28'0 0.0 26.9
2014-Jul-17 14:27N 28°38' W 049°28'0 0.2 26.9
2014-Jul-17 12:41N 28°38' W 049°28'1 1.3 26.9
2014-Jul-17 11:49N 28°38' W 049°26'1 0.3 26.8
2014-Jul-17 09:17N 28°38' W 049°26'1 0.6 26.8
2014-Jul-17 07:58N 28°38' W 049°25'0 0.2 26.8
2014-Jul-17 07:36N 28°38' W 049°25'1 2.0 26.8
2014-Jul-17 07:17N 28°39' W 049°24'0 0.0 26.9
2014-Jul-17 07:14N 28°39' W 049°24'0 0.0 26.9
2014-Jul-17 06:32N 28°39' W 049°24'1 5.4 26.9
2014-Jul-17 06:24N 28°39' W 049°23'0 0.0 26.9
2014-Jul-17 04:49N 28°39' W 049°23'111.1 26.9
2014-Jul-17 04:43N 28°39' W 049°22'0 0.0 26.9
2014-Jul-17 02:02N 28°39' W 049°22'0 0.1 26.9
2014-Jul-17 01:03N 28°39' W 049°22'0 0.3
2014-Jul-17 00:23N 28°39' W 049°22'0 0.0 27.0
2014-Jul-16 23:30N 28°39' W 049°22'0 2.8 27.0
2014-Jul-16 23:23N 28°39' W 049°21'0 0.0 27.0
2014-Jul-16 22:39N 28°39' W 049°21'0 0.0 27.1
2014-Jul-16 22:28N 28°39' W 049°21'0 0.3 27.1
2014-Jul-16 20:59N 28°39' W 049°21'0 0.7 27.2
2014-Jul-16 20:46N 28°39' W 049°21'0 1.8 27.2
2014-Jul-16 20:36N 28°39' W 049°21'1 0.5 27.2
2014-Jul-16 19:11N 28°39' W 049°20'0 0.0 27.3
2014-Jul-16 18:57N 28°39' W 049°20'0 3.2 27.3
2014-Jul-16 18:51N 28°38' W 049°20'0 0.0 27.3
2014-Jul-16 18:03N 28°38' W 049°20'1 0.8 27.3
2014-Jul-16 17:13N 28°38' W 049°19'0 0.0 27.3
2014-Jul-16 16:24N 28°38' W 049°19'0 0.0 27.2
2014-Jul-16 16:18N 28°38' W 049°19'1 0.4 27.2
2014-Jul-16 14:45N 28°38' W 049°19'1 1.1 27.1
2014-Jul-16 13:55N 28°37' W 049°18'0 0.0 27.0
2014-Jul-16 13:02N 28°37' W 049°18'1 1.5 26.9
2014-Jul-16 12:11N 28°37' W 049°17'0 0.0 26.9
2014-Jul-16 10:09N 28°37' W 049°17'0 3.6 26.9
2014-Jul-16 10:02N 28°37' W 049°16'0 0.0 26.9
2014-Jul-16 09:44N 28°37' W 049°16'0 1.4 26.9
2014-Jul-16 09:37N 28°37' W 049°16'0 4.8 26.9
2014-Jul-16 09:34N 28°37' W 049°16'0 0.0 26.9
2014-Jul-16 09:16N 28°37' W 049°16'0 5.8 26.9
2014-Jul-16 09:13N 28°37' W 049°16'0 2.6 26.9
2014-Jul-16 09:07N 28°37' W 049°16'0 0.1 26.9
2014-Jul-16 07:59N 28°37' W 049°16'0 0.5 26.9
2014-Jul-16 07:33N 28°37' W 049°16'0 5.3 26.9
2014-Jul-16 07:30N 28°37' W 049°16'110.6 26.9
2014-Jul-16 07:26N 28°37' W 049°15'0 0.0 26.9
2014-Jul-16 06:43N 28°37' W 049°15'0 0.4 26.9
2014-Jul-16 06:34N 28°37' W 049°15'0 0.1 26.9
2014-Jul-16 05:04N 28°37' W 049°15'0 1.2 26.9
2014-Jul-16 05:00N 28°37' W 049°15'1 0.2 26.9
2014-Jul-16 02:18N 28°37' W 049°14'0 0.0 27.0
2014-Jul-16 01:31N 28°37' W 049°14'0 1.6 27.0
2014-Jul-16 01:23N 28°37' W 049°14'0 0.0 27.0
2014-Jul-16 00:45N 28°37' W 049°14'022.0 27.1
2014-Jul-16 00:44N 28°37' W 049°14'0 0.0 27.1
2014-Jul-15 23:52N 28°37' W 049°14'0 0.1 27.1
2014-Jul-15 23:03N 28°36' W 049°15'0 0.0 27.1
2014-Jul-15 22:57N 28°36' W 049°15'1 0.6 27.1
2014-Jul-15 21:23N 28°36' W 049°14'0 0.3 27.2
2014-Jul-15 21:07N 28°36' W 049°14'0 0.2
2014-Jul-15 20:45N 28°36' W 049°14'0 0.5 27.2
2014-Jul-15 19:45N 28°35' W 049°14'1 0.7 27.2
2014-Jul-15 19:04N 28°35' W 049°14'1 0.6 27.3
2014-Jul-15 18:15N 28°35' W 049°13'1 0.7 27.3
2014-Jul-15 17:25N 28°34' W 049°13'0 0.1 27.2
2014-Jul-15 16:35N 28°34' W 049°13'2 0.9 27.2
2014-Jul-15 14:52N 28°34' W 049°11'0 0.2 27.1
2014-Jul-15 14:16N 28°34' W 049°11'0 0.6 27.0
2014-Jul-15 13:29N 28°33' W 049°11'0 0.3 26.9
2014-Jul-15 12:29N 28°33' W 049°11'113.7 26.9
2014-Jul-15 12:25N 28°33' W 049°10'0 0.0 26.9
2014-Jul-15 11:44N 28°33' W 049°10'0 0.0 26.9
2014-Jul-15 10:39N 28°33' W 049°10'0 3.9 26.8
2014-Jul-15 10:33N 28°33' W 049°10'0 0.0 26.8
2014-Jul-15 10:04N 28°33' W 049°10'0 3.9 26.8
2014-Jul-15 10:02N 28°33' W 049°10'0 0.5 26.8
2014-Jul-15 09:24N 28°33' W 049°09'0 2.7 26.8
2014-Jul-15 09:17N 28°33' W 049°09'0 0.6 26.8
2014-Jul-15 09:02N 28°33' W 049°09'0 0.3 26.8
2014-Jul-15 08:25N 28°33' W 049°09'0 0.3 26.8
2014-Jul-15 07:41N 28°33' W 049°09'0 1.5 26.8
2014-Jul-15 07:21N 28°34' W 049°09'0 0.8 26.8
2014-Jul-15 06:54N 28°33' W 049°09'0 0.2 26.9
2014-Jul-15 06:03N 28°33' W 049°09'0 0.0 26.9
2014-Jul-15 05:11N 28°33' W 049°09'1 6.9 26.9
2014-Jul-15 05:03N 28°32' W 049°09'0 0.0 26.9
2014-Jul-15 03:29N 28°32' W 049°09'0 0.0 26.9
2014-Jul-15 01:51N 28°32' W 049°09'1 6.5 26.9
2014-Jul-15 01:46N 28°32' W 049°08'0 0.4 26.9
2014-Jul-15 01:04N 28°32' W 049°08'0 0.0 26.9
2014-Jul-15 00:12N 28°32' W 049°08'0 0.1 26.9
2014-Jul-14 23:27N 28°32' W 049°08'1 4.9 27.0
2014-Jul-14 23:18N 28°32' W 049°08'0 0.0 27.0
2014-Jul-14 22:29N 28°32' W 049°08'0 0.0 27.0
2014-Jul-14 21:51N 28°32' W 049°08'0 2.5 27.1
2014-Jul-14 21:47N 28°32' W 049°08'0 3.2 27.1
2014-Jul-14 21:44N 28°32' W 049°08'0 0.1 27.1
2014-Jul-14 20:57N 28°32' W 049°08'0 0.3 27.1
2014-Jul-14 20:10N 28°32' W 049°08'0 2.5 27.2
2014-Jul-14 20:03N 28°31' W 049°08'0 0.0 27.2
2014-Jul-14 19:18N 28°31' W 049°08'0 0.1 27.2
2014-Jul-14 18:28N 28°31' W 049°08'0 2.5 27.2
2014-Jul-14 18:23N 28°31' W 049°08'1 0.8 27.2
2014-Jul-14 17:38N 28°31' W 049°08'1 0.9 27.2
2014-Jul-14 16:46N 28°30' W 049°08'2 1.0 27.2
2014-Jul-14 15:02N 28°29' W 049°07'1 1.5
2014-Jul-14 14:34N 28°29' W 049°06'0 0.1 26.9
2014-Jul-14 13:49N 28°29' W 049°06'1 5.9 26.9
2014-Jul-14 13:37N 28°28' W 049°05'1 0.9
2014-Jul-14 12:57N 28°29' W 049°06'1 5.1 26.8
2014-Jul-14 12:50N 28°28' W 049°05'0 0.3 26.8
2014-Jul-14 12:03N 28°28' W 049°05'0 0.3 26.8
2014-Jul-14 11:13N 28°28' W 049°05'0 0.0 26.7
2014-Jul-14 10:32N 28°28' W 049°05'110.7 26.7
2014-Jul-14 10:27N 28°29' W 049°04'0 0.0 26.7
2014-Jul-14 09:35N 28°29' W 049°04'0 3.2 26.7
2014-Jul-14 09:29N 28°29' W 049°04'0 0.0 26.7
2014-Jul-14 08:48N 28°29' W 049°04'0 0.2 26.7
2014-Jul-14 07:54N 28°29' W 049°03'0 4.7 26.7
2014-Jul-14 07:52N 28°29' W 049°04'0 8.5 26.7
2014-Jul-14 07:49N 28°29' W 049°04'0 0.0 26.7
2014-Jul-14 07:11N 28°29' W 049°04'0 5.2 26.7
2014-Jul-14 07:08N 28°29' W 049°04'0 0.0 26.7
2014-Jul-14 07:02N 28°29' W 049°04'0 0.8 26.8
2014-Jul-14 06:56N 28°29' W 049°04'0 0.1 26.8
2014-Jul-14 06:15N 28°29' W 049°03'0 0.1 26.8
2014-Jul-14 05:18N 28°29' W 049°04'1 0.3 26.8
2014-Jul-14 03:41N 28°28' W 049°04'0 0.0 26.8
2014-Jul-14 02:11N 28°28' W 049°04'0 1.5 26.9
2014-Jul-14 02:06N 28°28' W 049°04'0 0.4 26.9
2014-Jul-14 01:26N 28°28' W 049°04'0 0.2 26.9
2014-Jul-14 00:32N 28°28' W 049°04'0 0.5 26.9
2014-Jul-13 23:42N 28°28' W 049°04'0 1.1 26.9
2014-Jul-13 23:35N 28°28' W 049°04'0 0.0 26.9
2014-Jul-13 22:51N 28°28' W 049°04'0 4.4 26.9
2014-Jul-13 22:46N 28°27' W 049°04'0 0.0 26.9
2014-Jul-13 22:17N 28°27' W 049°04'1 4.7 26.9
2014-Jul-13 22:08N 28°27' W 049°03'0 0.0 26.9
2014-Jul-13 21:08N 28°27' W 049°03'0 0.1 27.0
2014-Jul-13 20:34N 28°27' W 049°03'0 0.4 27.0
2014-Jul-13 19:32N 28°26' W 049°03'0 9.5 27.1
2014-Jul-13 19:29N 28°26' W 049°03'0 0.0 27.1
2014-Jul-13 18:53N 28°26' W 049°03'0 1.4 27.1
2014-Jul-13 18:45N 28°26' W 049°03'0 0.0 27.0
2014-Jul-13 18:36N 28°26' W 049°03'1 0.7 27.0
2014-Jul-13 17:49N 28°26' W 049°03'1 1.4 27.0
2014-Jul-13 16:56N 28°25' W 049°03'0 0.0 27.0
2014-Jul-13 15:16N 28°25' W 049°03'1 1.5 26.9
2014-Jul-13 14:55N 28°24' W 049°02'0 0.1 26.8
2014-Jul-13 14:09N 28°24' W 049°03'1 0.3 26.8
2014-Jul-13 12:30N 28°24' W 049°02'0 2.7 26.7
2014-Jul-13 12:23N 28°24' W 049°03'231.3 26.7
2014-Jul-13 12:20N 28°23' W 049°01'0 0.0 26.7
2014-Jul-13 11:28N 28°23' W 049°01'0 0.0 26.7
2014-Jul-13 10:03N 28°23' W 049°01'0 1.8 26.7
2014-Jul-13 09:47N 28°23' W 049°01'1 7.2 26.7
2014-Jul-13 09:42N 28°23' W 049°01'0 0.0 26.7
2014-Jul-13 09:16N 28°23' W 049°01'0 4.0 26.7
2014-Jul-13 09:12N 28°23' W 049°01'0 8.4 26.7
2014-Jul-13 09:09N 28°23' W 049°00'0 0.4 26.7
2014-Jul-13 08:03N 28°23' W 048°60'0 0.4 26.7
2014-Jul-13 07:33N 28°23' W 049°00'0 0.0 26.6
2014-Jul-13 07:15N 28°23' W 049°00'0 0.5 26.7
2014-Jul-13 06:26N 28°23' W 048°60'224.2 26.7
2014-Jul-13 06:22N 28°22' W 048°58'1 1.3 26.7
2014-Jul-13 05:32N 28°23' W 048°59'0 0.0 26.7
2014-Jul-13 05:26N 28°23' W 048°59'0 0.0 26.7
2014-Jul-13 03:53N 28°23' W 048°59'014.4
2014-Jul-13 03:52N 28°23' W 048°59'0 0.2 26.7
2014-Jul-13 01:44N 28°23' W 048°59'   26.7

Dump ship's entire track history